createdAt,value
2022-09-05T00:00:02.871Z,17.30
2022-09-05T00:02:49.442Z,17.30
2022-09-05T00:05:38.568Z,17.50
2022-09-05T00:08:29.682Z,17.40
2022-09-05T00:11:39.656Z,17.50
2022-09-05T00:14:53.210Z,17.50
2022-09-05T00:17:17.981Z,17.50
2022-09-05T00:24:19.621Z,17.30
2022-09-05T00:24:25.045Z,17.40
2022-09-05T00:26:01.023Z,17.40
2022-09-05T00:28:39.844Z,17.40
2022-09-05T00:31:54.465Z,17.30
2022-09-05T00:34:47.219Z,17.40
2022-09-05T00:37:28.452Z,17.40
2022-09-05T00:40:17.994Z,17.40
2022-09-05T00:42:50.673Z,17.40
2022-09-05T00:45:27.397Z,17.40
2022-09-05T00:48:00.058Z,17.40
2022-09-05T00:50:43.480Z,17.20
2022-09-05T00:53:17.564Z,17.30
2022-09-05T00:55:58.928Z,17.30
2022-09-05T00:58:46.183Z,17.30
2022-09-05T01:01:28.556Z,17.30
2022-09-05T01:04:13.156Z,17.30
2022-09-05T01:06:56.186Z,17.30
2022-09-05T01:09:39.043Z,17.30
2022-09-05T01:12:20.571Z,17.20
2022-09-05T01:15:04.614Z,17.30
2022-09-05T01:17:45.441Z,17.10
2022-09-05T01:20:32.107Z,17.20
2022-09-05T01:23:28.263Z,17.10
2022-09-05T01:26:11.635Z,17.10
2022-09-05T01:29:16.852Z,16.90
2022-09-05T01:31:41.187Z,16.80
2022-09-05T01:34:32.003Z,16.70
2022-09-05T01:37:08.406Z,16.70
2022-09-05T01:40:14.513Z,16.80
2022-09-05T01:42:56.959Z,16.90
2022-09-05T01:45:39.532Z,16.90
2022-09-05T01:48:13.217Z,16.80
2022-09-05T01:50:47.230Z,16.80
2022-09-05T01:53:32.560Z,16.70
2022-09-05T01:56:27.939Z,16.60
2022-09-05T01:59:06.250Z,16.70
2022-09-05T02:01:52.422Z,16.70
2022-09-05T02:04:38.713Z,16.70
2022-09-05T02:07:30.306Z,16.70
2022-09-05T02:10:27.705Z,16.70
2022-09-05T02:13:03.270Z,16.60
2022-09-05T02:15:45.107Z,16.50
2022-09-05T02:18:39.071Z,16.40
2022-09-05T02:21:14.267Z,16.30
2022-09-05T02:23:47.667Z,16.30
2022-09-05T02:26:21.737Z,16.40
2022-09-05T02:28:55.010Z,16.40
2022-09-05T02:31:29.406Z,16.40
2022-09-05T02:34:04.785Z,16.30
2022-09-05T02:36:40.801Z,16.40
2022-09-05T02:45:02.680Z,16.40
2022-09-05T02:45:10.844Z,16.40
2022-09-05T02:45:25.701Z,16.40
2022-09-05T02:48:04.241Z,16.30
2022-09-05T02:57:25.163Z,16.20
2022-09-05T02:57:36.858Z,16.20
2022-09-05T02:57:43.075Z,16.30
2022-09-05T03:00:06.291Z,16.20
2022-09-05T03:02:54.875Z,16.20
2022-09-05T03:05:27.776Z,16.30
2022-09-05T03:08:14.508Z,16.50
2022-09-05T03:11:22.778Z,16.50
2022-09-05T03:14:23.350Z,16.30
2022-09-05T03:17:25.297Z,16.20
2022-09-05T03:20:27.743Z,16.20
2022-09-05T03:23:39.577Z,16.20
2022-09-05T03:26:38.923Z,16.20
2022-09-05T03:29:38.107Z,16.30
2022-09-05T03:32:42.102Z,16.30
2022-09-05T03:35:44.525Z,16.30
2022-09-05T03:38:48.547Z,16.20
2022-09-05T03:41:40.298Z,16.10
2022-09-05T03:44:20.932Z,16.10
2022-09-05T03:47:14.626Z,16.00
2022-09-05T03:53:57.122Z,15.90
2022-09-05T03:57:18.607Z,15.90
2022-09-05T03:57:24.630Z,16.00
2022-09-05T03:59:28.499Z,16.00
2022-09-05T04:03:09.217Z,16.00
2022-09-05T04:08:17.689Z,15.90
2022-09-05T04:08:20.618Z,15.80
2022-09-05T04:10:40.050Z,15.70
2022-09-05T04:13:17.980Z,15.80
2022-09-05T04:15:54.739Z,15.90
2022-09-05T04:18:33.443Z,16.00
2022-09-05T04:21:07.288Z,16.10
2022-09-05T04:23:48.490Z,16.10
2022-09-05T04:26:31.474Z,16.10
2022-09-05T04:29:09.339Z,15.90
2022-09-05T04:31:56.241Z,15.80
2022-09-05T04:34:51.247Z,15.80
2022-09-05T04:37:49.016Z,16.00
2022-09-05T04:40:37.871Z,15.90
2022-09-05T04:43:07.759Z,15.80
2022-09-05T04:45:41.378Z,15.80
2022-09-05T04:48:15.017Z,15.90
2022-09-05T04:51:04.171Z,15.80
2022-09-05T04:53:44.922Z,15.80
2022-09-05T04:56:18.379Z,15.70
2022-09-05T05:00:54.320Z,15.70
2022-09-05T05:06:03.773Z,15.60
2022-09-05T05:06:19.958Z,15.60
2022-09-05T05:07:26.492Z,15.50
2022-09-05T05:10:52.691Z,15.50
2022-09-05T05:18:00.193Z,15.50
2022-09-05T05:18:14.372Z,15.50
2022-09-05T05:18:57.859Z,15.60
2022-09-05T05:21:34.130Z,15.50
2022-09-05T05:24:08.853Z,15.60
2022-09-05T05:26:43.479Z,15.60
2022-09-05T05:29:19.740Z,15.60
2022-09-05T05:31:50.236Z,15.60
2022-09-05T05:34:25.310Z,15.60
2022-09-05T05:37:00.923Z,15.70
2022-09-05T05:39:31.010Z,15.80
2022-09-05T05:42:05.240Z,15.70
2022-09-05T05:44:53.933Z,15.70
2022-09-05T05:47:31.415Z,15.70
2022-09-05T05:50:03.799Z,15.80
2022-09-05T05:53:28.916Z,15.70
2022-09-05T05:56:19.391Z,15.70
2022-09-05T05:58:59.657Z,15.70
2022-09-05T06:02:05.232Z,15.70
2022-09-05T06:05:04.218Z,15.80
2022-09-05T06:08:26.203Z,15.90
2022-09-05T06:15:02.196Z,16.10
2022-09-05T06:15:06.397Z,16.10
2022-09-05T06:17:30.710Z,16.00
2022-09-05T06:22:05.474Z,16.10
2022-09-05T06:23:48.575Z,16.10
2022-09-05T06:26:53.307Z,16.20
2022-09-05T06:29:38.553Z,16.30
2022-09-05T06:32:19.669Z,16.40
2022-09-05T06:35:10.770Z,16.50
2022-09-05T06:37:46.517Z,16.60
2022-09-05T06:40:27.192Z,16.70
2022-09-05T06:43:18.513Z,16.80
2022-09-05T06:46:54.364Z,16.90
2022-09-05T06:49:30.624Z,17.00
2022-09-05T06:52:30.449Z,17.00
2022-09-05T06:55:40.900Z,17.20
2022-09-05T06:58:34.367Z,17.30
2022-09-05T07:01:08.878Z,17.40
2022-09-05T07:03:56.720Z,17.40
2022-09-05T07:07:01.922Z,17.50
2022-09-05T07:09:28.670Z,17.60
2022-09-05T07:12:10.056Z,17.70
2022-09-05T07:14:51.258Z,17.80
2022-09-05T07:17:25.416Z,17.90
2022-09-05T07:19:57.259Z,17.90
2022-09-05T07:22:47.258Z,18.10
2022-09-05T07:25:20.748Z,18.30
2022-09-05T07:28:28.772Z,18.30
2022-09-05T07:30:50.658Z,18.50
2022-09-05T07:33:21.933Z,18.60
2022-09-05T07:35:52.087Z,18.70
2022-09-05T07:38:26.502Z,18.80
2022-09-05T07:41:18.860Z,18.90
2022-09-05T07:43:50.451Z,19.30
2022-09-05T07:46:23.800Z,19.90
2022-09-05T07:48:56.812Z,20.90
2022-09-05T07:56:48.160Z,22.00
2022-09-05T07:56:58.900Z,23.10
2022-09-05T07:57:31.368Z,24.20
2022-09-05T08:00:06.202Z,25.10
2022-09-05T08:02:35.575Z,25.70
2022-09-05T08:05:05.272Z,26.30
2022-09-05T08:07:47.701Z,26.70
2022-09-05T08:10:30.498Z,27.00
2022-09-05T08:13:24.089Z,27.50
2022-09-05T08:16:13.400Z,27.90
2022-09-05T08:18:47.682Z,28.10
2022-09-05T08:21:27.847Z,28.10
2022-09-05T08:24:05.426Z,28.30
2022-09-05T08:26:47.334Z,28.20
2022-09-05T08:29:28.279Z,28.70
2022-09-05T08:32:03.277Z,28.60
2022-09-05T08:34:44.987Z,28.80
2022-09-05T08:37:21.278Z,28.80
2022-09-05T08:40:10.006Z,28.80
2022-09-05T08:44:01.374Z,29.00
2022-09-05T08:46:39.340Z,28.90
2022-09-05T08:48:58.227Z,29.10
2022-09-05T08:51:54.295Z,29.10
2022-09-05T08:54:32.846Z,29.20
2022-09-05T08:57:11.105Z,29.40
2022-09-05T09:00:18.356Z,29.80
2022-09-05T09:03:04.455Z,29.90
2022-09-05T09:06:15.678Z,29.90
2022-09-05T09:09:15.005Z,29.90
2022-09-05T09:11:51.448Z,30.00
2022-09-05T09:14:39.494Z,30.10
2022-09-05T09:17:21.722Z,30.10
2022-09-05T09:19:54.169Z,29.90
2022-09-05T09:22:37.876Z,29.90
2022-09-05T09:25:15.954Z,30.30
2022-09-05T09:28:50.626Z,30.50
2022-09-05T09:31:11.992Z,30.30
2022-09-05T09:33:45.687Z,30.40
2022-09-05T09:36:34.848Z,30.60
2022-09-05T09:39:37.314Z,30.80
2022-09-05T09:42:33.146Z,31.00
2022-09-05T09:45:28.384Z,31.00
2022-09-05T09:48:39.018Z,31.10
2022-09-05T09:51:26.978Z,31.60
2022-09-05T09:54:06.984Z,31.50
2022-09-05T09:57:15.053Z,31.50
2022-09-05T10:00:07.536Z,31.70
2022-09-05T10:06:59.111Z,32.00
2022-09-05T10:10:54.225Z,32.10
2022-09-05T10:10:58.216Z,32.50
2022-09-05T10:13:08.730Z,32.40
2022-09-05T10:15:47.853Z,32.20
2022-09-05T10:18:40.741Z,32.10
2022-09-05T10:21:45.870Z,31.60
2022-09-05T10:24:42.422Z,30.90
2022-09-05T10:27:38.421Z,30.50
2022-09-05T10:30:16.792Z,30.30
2022-09-05T10:35:15.177Z,30.50
2022-09-05T10:36:27.610Z,30.40
2022-09-05T10:39:13.560Z,30.00
2022-09-05T10:41:49.192Z,29.70
2022-09-05T10:44:24.640Z,29.20
2022-09-05T10:47:07.774Z,28.90
2022-09-05T10:49:43.301Z,28.60
2022-09-05T10:52:18.438Z,28.70
2022-09-05T10:55:14.809Z,28.70
2022-09-05T10:57:55.560Z,28.60
2022-09-05T11:02:21.333Z,28.50
2022-09-05T11:03:46.546Z,28.60
2022-09-05T11:06:24.807Z,28.70
2022-09-05T11:09:04.452Z,28.90
2022-09-05T11:11:45.821Z,28.90
2022-09-05T11:14:35.106Z,28.80
2022-09-05T11:17:14.054Z,28.60
2022-09-05T11:19:45.156Z,28.40
2022-09-05T11:22:23.625Z,28.30
2022-09-05T11:24:55.965Z,28.20
2022-09-05T11:27:31.023Z,28.10
2022-09-05T11:30:03.949Z,28.10
2022-09-05T11:39:50.833Z,28.10
2022-09-05T11:39:53.894Z,28.10
2022-09-05T11:40:07.350Z,28.10
2022-09-05T11:42:41.511Z,28.00
2022-09-05T11:45:22.393Z,28.10
2022-09-05T11:48:23.801Z,28.30
2022-09-05T11:51:33.642Z,28.40
2022-09-05T11:54:32.820Z,28.50
2022-09-05T11:57:33.188Z,28.60
2022-09-05T12:00:31.339Z,29.10
2022-09-05T12:03:58.194Z,29.50
2022-09-05T12:06:33.231Z,29.70
2022-09-05T12:09:06.554Z,29.70
2022-09-05T12:11:55.127Z,29.70
2022-09-05T12:14:35.374Z,29.60
2022-09-05T12:17:10.400Z,29.50
2022-09-05T12:19:52.885Z,29.40
2022-09-05T12:22:29.073Z,29.30
2022-09-05T12:27:38.660Z,29.40
2022-09-05T12:29:29.304Z,29.40
2022-09-05T12:32:34.451Z,29.10
2022-09-05T12:36:10.873Z,28.80
2022-09-05T12:40:40.241Z,28.80
2022-09-05T12:41:38.117Z,29.00
2022-09-05T12:44:38.262Z,29.10
2022-09-05T12:46:24.785Z,29.10
2022-09-05T12:49:01.484Z,29.00
2022-09-05T12:51:47.030Z,28.80
2022-09-05T12:54:33.367Z,28.80
2022-09-05T13:00:05.615Z,28.90
2022-09-05T13:03:06.458Z,28.70
2022-09-05T13:03:13.476Z,28.90
2022-09-05T13:05:51.575Z,28.80
2022-09-05T13:08:22.317Z,28.70
2022-09-05T13:14:50.140Z,28.70
2022-09-05T13:14:59.362Z,28.70
2022-09-05T13:16:39.749Z,28.70
2022-09-05T13:19:22.553Z,28.60
2022-09-05T13:21:52.671Z,28.50
2022-09-05T13:24:30.581Z,28.50
2022-09-05T13:27:07.761Z,28.50
2022-09-05T13:32:40.423Z,28.60
2022-09-05T13:37:58.603Z,28.50
2022-09-05T13:38:13.582Z,28.50
2022-09-05T13:38:48.306Z,28.40
2022-09-05T13:41:27.200Z,28.40
2022-09-05T13:44:00.401Z,28.40
2022-09-05T13:46:58.725Z,28.30
2022-09-05T13:49:33.219Z,28.20
2022-09-05T13:52:21.063Z,28.30
2022-09-05T13:54:52.939Z,28.20
2022-09-05T13:57:33.026Z,28.20
2022-09-05T14:00:27.927Z,28.10
2022-09-05T14:03:37.810Z,28.10
2022-09-05T14:06:45.715Z,28.10
2022-09-05T14:09:35.787Z,28.10
2022-09-05T14:12:11.932Z,28.10
2022-09-05T14:17:54.159Z,28.10
2022-09-05T14:20:43.539Z,28.00
2022-09-05T14:23:18.493Z,28.00
2022-09-05T14:25:52.475Z,28.10
2022-09-05T14:28:26.278Z,28.00
2022-09-05T14:32:13.664Z,28.00
2022-09-05T14:37:46.278Z,28.10
2022-09-05T14:38:00.571Z,28.20
2022-09-05T14:40:29.249Z,28.10
2022-09-05T14:43:40.765Z,28.10
2022-09-05T14:46:33.501Z,28.10
2022-09-05T14:49:15.514Z,28.00
2022-09-05T14:51:48.021Z,28.00
2022-09-05T15:01:18.239Z,28.00
2022-09-05T15:02:42.474Z,28.00
2022-09-05T15:03:05.128Z,27.90
2022-09-05T15:05:41.630Z,27.90
2022-09-05T15:08:16.306Z,27.90
2022-09-05T15:12:17.473Z,27.90
2022-09-05T15:13:57.314Z,27.90
2022-09-05T15:16:27.136Z,27.90
2022-09-05T15:18:56.307Z,27.80
2022-09-05T15:21:33.783Z,27.80
2022-09-05T15:24:14.737Z,27.80
2022-09-05T15:26:52.611Z,27.70
2022-09-05T15:29:23.456Z,27.70
2022-09-05T15:32:09.430Z,27.70
2022-09-05T15:34:39.281Z,27.70
2022-09-05T15:37:24.088Z,27.60
2022-09-05T15:40:02.199Z,27.70
2022-09-05T15:42:32.799Z,27.80
2022-09-05T15:45:10.924Z,27.70
2022-09-05T15:47:47.318Z,27.70
2022-09-05T15:50:21.866Z,27.60
2022-09-05T15:52:55.746Z,27.60
2022-09-05T15:55:25.247Z,27.50
2022-09-05T15:57:56.740Z,27.50
2022-09-05T16:00:51.243Z,27.40
2022-09-05T16:05:59.521Z,27.40
2022-09-05T16:10:28.079Z,27.30
2022-09-05T16:10:37.269Z,27.30
2022-09-05T16:12:14.034Z,27.20
2022-09-05T16:15:31.402Z,27.10
2022-09-05T16:23:20.341Z,27.10
2022-09-05T16:23:31.905Z,27.00
2022-09-05T16:23:45.555Z,26.90
2022-09-05T16:26:24.797Z,26.80
2022-09-05T16:28:58.505Z,26.80
2022-09-05T16:31:35.436Z,26.80
2022-09-05T16:34:08.495Z,26.80
2022-09-05T16:37:07.822Z,26.70
2022-09-05T16:39:39.896Z,26.60
2022-09-05T16:42:15.968Z,26.60
2022-09-05T16:44:49.620Z,26.50
2022-09-05T16:47:24.499Z,26.50
2022-09-05T16:49:59.784Z,26.40
2022-09-05T16:52:35.368Z,26.40
2022-09-05T16:55:11.328Z,26.30
2022-09-05T16:57:42.838Z,26.20
2022-09-05T17:00:11.643Z,26.20
2022-09-05T17:02:44.429Z,26.10
2022-09-05T17:05:19.969Z,26.10
2022-09-05T17:08:07.070Z,26.00
2022-09-05T17:10:43.828Z,25.90
2022-09-05T17:13:16.733Z,25.80
2022-09-05T17:15:55.014Z,25.70
2022-09-05T17:18:27.900Z,25.60
2022-09-05T17:21:01.844Z,25.50
2022-09-05T17:29:17.569Z,25.40
2022-09-05T17:29:35.091Z,25.30
2022-09-05T17:32:50.531Z,25.30
2022-09-05T17:35:41.532Z,25.30
2022-09-05T17:38:34.890Z,25.30
2022-09-05T17:41:49.446Z,25.30
2022-09-05T17:44:23.579Z,25.50
2022-09-05T17:47:08.171Z,25.50
2022-09-05T17:49:45.980Z,25.30
2022-09-05T17:52:24.240Z,25.20
2022-09-05T17:54:54.508Z,25.00
2022-09-05T17:57:41.300Z,25.00
2022-09-05T18:01:00.236Z,24.90
2022-09-05T18:04:15.707Z,24.80
2022-09-05T18:06:58.852Z,24.60
2022-09-05T18:10:14.871Z,24.60
2022-09-05T18:13:13.457Z,24.60
2022-09-05T18:16:12.106Z,24.60
2022-09-05T18:19:28.118Z,24.60
2022-09-05T18:21:49.711Z,24.50
2022-09-05T18:24:33.648Z,24.50
2022-09-05T18:27:35.045Z,24.50
2022-09-05T18:30:28.959Z,24.20
2022-09-05T18:33:56.068Z,24.20
2022-09-05T18:36:35.333Z,24.20
2022-09-05T18:39:40.751Z,24.10
2022-09-05T18:42:25.484Z,23.80
2022-09-05T18:45:14.507Z,23.70
2022-09-05T18:47:53.123Z,23.70
2022-09-05T18:50:32.179Z,23.60
2022-09-05T18:53:09.895Z,23.60
2022-09-05T18:56:14.352Z,23.50
2022-09-05T18:58:35.403Z,23.30
2022-09-05T19:01:28.765Z,23.30
2022-09-05T19:04:01.864Z,23.20
2022-09-05T19:06:37.174Z,23.20
2022-09-05T19:09:08.506Z,23.10
2022-09-05T19:11:52.766Z,23.10
2022-09-05T19:14:33.266Z,23.00
2022-09-05T19:17:07.676Z,23.00
2022-09-05T19:20:31.305Z,22.90
2022-09-05T19:23:10.421Z,22.70
2022-09-05T19:25:43.203Z,22.50
2022-09-05T19:34:56.302Z,22.60
2022-09-05T19:36:52.111Z,22.50
2022-09-05T19:37:24.369Z,22.50
2022-09-05T19:37:29.247Z,22.50
2022-09-05T19:43:48.350Z,22.40
2022-09-05T19:47:41.503Z,22.10
2022-09-05T19:47:42.240Z,22.20
2022-09-05T19:50:56.265Z,21.90
2022-09-05T19:53:24.855Z,21.80
2022-09-05T19:55:54.676Z,22.00
2022-09-05T19:58:24.134Z,22.00
2022-09-05T20:01:02.534Z,22.00
2022-09-05T20:03:39.402Z,22.10
2022-09-05T20:06:29.023Z,22.10
2022-09-05T20:09:10.418Z,21.90
2022-09-05T20:11:45.466Z,21.90
2022-09-05T20:14:21.518Z,21.80
2022-09-05T20:16:50.583Z,21.70
2022-09-05T20:19:32.261Z,21.80
2022-09-05T20:22:21.208Z,21.80
2022-09-05T20:24:52.819Z,21.60
2022-09-05T20:27:27.077Z,21.50
2022-09-05T20:29:58.020Z,21.40
2022-09-05T20:32:39.659Z,21.30
2022-09-05T20:36:43.962Z,21.20
2022-09-05T20:43:17.605Z,21.00
2022-09-05T20:43:19.662Z,21.10
2022-09-05T20:43:54.682Z,20.90
2022-09-05T20:50:45.647Z,20.90
2022-09-05T20:54:05.523Z,20.90
2022-09-05T20:54:12.982Z,21.00
2022-09-05T20:55:38.601Z,20.90
2022-09-05T20:58:09.296Z,20.90
2022-09-05T21:01:20.638Z,20.90
2022-09-05T21:03:34.617Z,21.00
2022-09-05T21:06:12.671Z,20.80
2022-09-05T21:08:40.828Z,20.70
2022-09-05T21:11:09.093Z,20.50
2022-09-05T21:13:41.206Z,20.60
2022-09-05T21:16:27.731Z,20.60
2022-09-05T21:18:55.885Z,20.50
2022-09-05T21:21:28.372Z,20.50
2022-09-05T21:24:16.473Z,20.50
2022-09-05T21:26:50.086Z,20.60
2022-09-05T21:29:26.092Z,20.50
2022-09-05T21:32:00.102Z,20.50
2022-09-05T21:34:32.158Z,20.40
2022-09-05T21:37:06.772Z,20.30
2022-09-05T21:39:40.139Z,20.30
2022-09-05T21:46:14.256Z,20.30
2022-09-05T21:47:39.510Z,20.20
2022-09-05T21:47:53.258Z,20.30
2022-09-05T21:50:30.979Z,20.30
2022-09-05T21:54:54.645Z,20.20
2022-09-05T21:59:19.659Z,20.00
2022-09-05T21:59:20.125Z,20.10
2022-09-05T22:01:51.815Z,20.00
2022-09-05T22:04:17.560Z,19.90
2022-09-05T22:06:48.676Z,19.90
2022-09-05T22:09:17.536Z,20.00
2022-09-05T22:11:50.134Z,19.90
2022-09-05T22:14:18.637Z,19.90
2022-09-05T22:16:50.310Z,19.80
2022-09-05T22:19:36.921Z,19.80
2022-09-05T22:22:15.461Z,19.70
2022-09-05T22:24:47.500Z,19.60
2022-09-05T22:27:15.609Z,19.60
2022-09-05T22:29:47.332Z,19.60
2022-09-05T22:32:34.441Z,19.70
2022-09-05T22:35:15.989Z,19.70
2022-09-05T22:38:00.168Z,19.90
2022-09-05T22:40:29.185Z,19.80
2022-09-05T22:42:57.649Z,19.80
2022-09-05T22:45:25.919Z,19.70
2022-09-05T22:47:54.259Z,19.70
2022-09-05T22:50:23.729Z,19.70
2022-09-05T22:52:51.843Z,19.70
2022-09-05T22:55:20.128Z,19.70
2022-09-05T22:57:48.010Z,19.60
2022-09-05T23:00:16.319Z,19.50
2022-09-05T23:02:46.120Z,19.40
2022-09-05T23:05:16.976Z,19.40
2022-09-05T23:07:46.111Z,19.30
2022-09-05T23:10:13.939Z,19.30
2022-09-05T23:12:41.787Z,19.30
2022-09-05T23:15:10.714Z,19.30
2022-09-05T23:17:38.533Z,19.30
2022-09-05T23:20:07.312Z,19.40
2022-09-05T23:22:37.000Z,19.40
2022-09-05T23:25:06.875Z,19.40
2022-09-05T23:27:36.112Z,19.50
2022-09-05T23:30:05.025Z,19.50
2022-09-05T23:32:33.296Z,19.40
2022-09-05T23:35:01.685Z,19.50
2022-09-05T23:37:29.747Z,19.50
2022-09-05T23:39:57.948Z,19.30
2022-09-05T23:42:27.513Z,19.20
2022-09-05T23:44:55.351Z,19.10
2022-09-05T23:47:23.157Z,19.20
2022-09-05T23:49:50.959Z,19.20
2022-09-05T23:52:18.734Z,19.10
2022-09-05T23:54:46.533Z,19.10
2022-09-05T23:57:14.327Z,19.00
2022-09-05T23:59:43.491Z,19.00
